Time;durP1;ratioP1;P1;durP2;ratioP2;P2;SDS_P1;SDS_P2;PMS_P1;PMS_P2;Temp;Humidity;BMP_temperature;BMP_pressure;BME280_temperature;BME280_humidity;BME280_pressure;Samples;Min_cycle;Max_cycle;Signal;HPM_P1;HPM_P2
2022/05/22 00:00:53;;;;;;;0.10;0.10;;;13.20;99.90;226.50;231333.00;;;;5070179;28;20233;-70
2022/05/22 00:03:22;;;;;;;0.10;0.10;;;13.20;99.90;226.50;231333.00;;;;5069821;28;20240;-71
2022/05/22 00:05:50;;;;;;;0.08;0.08;;;13.20;99.90;226.50;231333.00;;;;5071406;28;20213;-70
2022/05/22 00:08:19;;;;;;;0.00;0.00;;;13.20;99.90;226.50;231333.00;;;;5072034;28;20193;-69
2022/05/22 00:10:48;;;;;;;0.10;0.10;;;13.30;99.90;226.50;231333.00;;;;5071961;28;20742;-69
2022/05/22 00:13:17;;;;;;;0.00;0.00;;;13.20;99.90;226.50;231333.00;;;;5072620;28;20615;-69
2022/05/22 00:18:29;;;;;;;0.10;0.10;;;13.20;99.90;226.50;231333.00;;;;5072729;28;20262;-68
2022/05/22 00:20:58;;;;;;;0.10;0.10;;;13.20;99.90;226.50;231333.00;;;;5074751;28;20219;-69
2022/05/22 00:23:28;;;;;;;0.00;0.00;;;13.20;99.90;226.50;231333.00;;;;5074809;28;20194;-69
2022/05/22 00:25:57;;;;;;;0.08;0.08;;;13.30;99.90;226.50;231333.00;;;;5074720;28;20213;-69
2022/05/22 00:28:26;;;;;;;0.10;0.10;;;13.40;99.90;226.50;231333.00;;;;5073490;28;20193;-69
2022/05/22 00:30:54;;;;;;;0.00;0.00;;;13.20;99.90;226.50;231333.00;;;;5074546;28;20210;-69
2022/05/22 00:33:22;;;;;;;0.10;0.10;;;13.10;99.90;226.50;231333.00;;;;5055232;28;20671;-69
2022/05/22 00:35:52;;;;;;;0.00;0.00;;;12.90;99.90;226.50;231333.00;;;;5073160;28;20218;-68
2022/05/22 00:38:21;;;;;;;0.03;0.03;;;12.80;1.00;226.50;231333.00;;;;5071380;28;20200;-68
2022/05/22 00:40:49;;;;;;;0.10;0.10;;;12.80;1.00;226.50;231333.00;;;;5054937;28;20236;-69
2022/05/22 00:43:30;;;;;;;0.10;0.10;;;12.80;1.00;226.50;231333.00;;;;5073269;28;20425;-69
2022/05/22 00:46:00;;;;;;;0.10;0.10;;;12.80;1.00;226.50;231333.00;;;;5068915;28;20189;-68
2022/05/22 00:48:30;;;;;;;0.10;0.10;;;12.80;1.00;226.50;231333.00;;;;5063231;28;20254;-69
2022/05/22 00:51:10;;;;;;;0.10;0.10;;;13.00;99.90;226.50;231333.00;;;;5057972;28;20213;-69
2022/05/22 00:53:49;;;;;;;0.10;0.10;;;12.90;1.00;226.50;231333.00;;;;5071359;28;20232;-69
2022/05/22 00:56:24;;;;;;;0.10;0.10;;;12.90;1.00;226.50;231333.00;;;;5069764;28;20225;-68
2022/05/22 00:58:56;;;;;;;0.03;0.03;;;12.80;1.00;226.50;231333.00;;;;5062420;28;20206;-68
2022/05/22 01:01:25;;;;;;;0.10;0.10;;;12.80;1.00;226.50;231333.00;;;;5044811;28;20655;-69
2022/05/22 01:03:56;;;;;;;0.00;0.00;;;12.90;1.00;226.50;231333.00;;;;5070080;28;20284;-70
2022/05/22 01:06:26;;;;;;;0.10;0.10;;;12.80;1.00;226.50;231333.00;;;;5070982;28;20604;-66
2022/05/22 01:08:59;;;;;;;0.10;0.10;;;12.80;1.00;226.50;231333.00;;;;5070183;28;20667;-66
2022/05/22 01:11:34;;;;;;;0.10;0.10;;;12.80;1.00;226.50;231333.00;;;;5070453;28;20190;-66
2022/05/22 01:14:07;;;;;;;0.10;0.10;;;12.80;1.00;226.50;231333.00;;;;5071250;28;20203;-66
2022/05/22 01:16:37;;;;;;;0.10;0.10;;;12.80;1.00;226.50;231333.00;;;;5070757;28;20706;-69
2022/05/22 01:19:15;;;;;;;0.10;0.10;;;12.80;1.00;226.50;231333.00;;;;5057862;28;20296;-69
2022/05/22 01:21:53;;;;;;;0.10;0.10;;;12.70;1.00;226.50;231333.00;;;;5052070;28;20602;-68
2022/05/22 01:24:22;;;;;;;0.08;0.08;;;12.80;1.00;226.50;231333.00;;;;5071149;28;20526;-69
2022/05/22 01:26:53;;;;;;;0.08;0.08;;;12.80;1.00;226.50;231333.00;;;;5070827;28;20201;-69
2022/05/22 01:29:28;;;;;;;0.10;0.10;;;12.70;1.00;226.50;231333.00;;;;5057215;28;20255;-70
2022/05/22 01:31:56;;;;;;;0.00;0.00;;;12.60;1.00;226.50;231333.00;;;;5065405;28;20280;-69
2022/05/22 01:34:25;;;;;;;0.10;0.10;;;12.60;1.00;226.50;231333.00;;;;5054008;28;20200;-70
2022/05/22 01:36:55;;;;;;;0.10;0.10;;;12.60;1.00;226.50;231333.00;;;;5056736;28;20193;-69
2022/05/22 01:39:24;;;;;;;0.10;0.10;;;12.40;1.00;226.50;231333.00;;;;5056134;28;20213;-70
2022/05/22 01:41:56;;;;;;;0.10;0.10;;;12.10;1.00;226.50;231333.00;;;;5073177;28;20231;-69
2022/05/22 01:44:25;;;;;;;0.10;0.10;;;12.00;1.00;226.50;231333.00;;;;5071441;28;20201;-70
2022/05/22 01:46:55;;;;;;;0.10;0.10;;;12.10;1.00;226.50;231333.00;;;;5072667;28;20190;-69
2022/05/22 01:49:27;;;;;;;0.10;0.10;;;12.10;1.00;226.50;231333.00;;;;5056372;28;20229;-69
2022/05/22 01:51:57;;;;;;;0.00;0.00;;;12.10;1.00;226.50;231333.00;;;;5072690;28;20651;-70
2022/05/22 01:54:26;;;;;;;0.10;0.10;;;12.00;1.00;226.50;231333.00;;;;5074423;28;20247;-70
2022/05/22 01:56:56;;;;;;;0.10;0.10;;;12.00;1.00;226.50;231333.00;;;;5056565;28;20725;-69
2022/05/22 01:59:26;;;;;;;0.10;0.10;;;12.00;1.00;226.50;231333.00;;;;5056390;28;20686;-70
2022/05/22 02:01:59;;;;;;;0.00;0.00;;;12.00;1.00;226.50;231333.00;;;;5053461;28;20285;-69
2022/05/22 02:04:30;;;;;;;0.08;0.08;;;11.90;1.00;226.50;231333.00;;;;5060963;28;20587;-69
2022/05/22 02:09:48;;;;;;;0.10;0.10;;;11.90;1.00;226.50;231333.00;;;;5073088;28;20217;-67
2022/05/22 02:12:18;;;;;;;0.08;0.08;;;11.90;1.00;226.50;231333.00;;;;5072588;28;20194;-67
2022/05/22 02:14:46;;;;;;;0.00;0.00;;;11.90;1.00;226.50;231333.00;;;;5055752;28;20631;-67
2022/05/22 02:17:17;;;;;;;0.10;0.10;;;11.80;1.00;226.50;231333.00;;;;5054542;28;20615;-67
2022/05/22 02:19:58;;;;;;;0.10;0.10;;;11.90;1.00;226.50;231333.00;;;;5067710;28;20216;-70
2022/05/22 02:22:56;;;;;;;0.10;0.10;;;11.90;1.00;226.50;231333.00;;;;5069714;28;20243;-70
2022/05/22 02:25:29;;;;;;;0.10;0.10;;;11.90;1.00;226.50;231333.00;;;;5062805;28;20209;-70
2022/05/22 02:28:07;;;;;;;0.10;0.10;;;11.80;1.00;226.50;231333.00;;;;5058166;28;20210;-69
2022/05/22 02:30:43;;;;;;;0.10;0.10;;;11.70;1.00;226.50;231333.00;;;;5056091;28;20209;-69
2022/05/22 02:33:11;;;;;;;0.10;0.10;;;11.60;12.30;226.50;231333.00;;;;5056165;28;20559;-69
2022/05/22 02:35:47;;;;;;;0.10;0.10;;;11.70;9.90;226.50;231333.00;;;;5072966;28;20248;-69
2022/05/22 02:38:23;;;;;;;0.10;0.10;;;11.60;18.90;226.50;231333.00;;;;5072133;28;20280;-69
2022/05/22 02:40:52;;;;;;;0.10;0.10;;;11.50;47.60;226.50;231333.00;;;;5055545;28;20241;-69
2022/05/22 02:43:21;;;;;;;0.10;0.10;;;11.50;72.90;226.50;231333.00;;;;5056157;28;20194;-69
2022/05/22 02:45:56;;;;;;;0.10;0.10;;;11.50;88.40;226.50;231333.00;;;;5062706;28;20232;-69
2022/05/22 02:48:24;;;;;;;0.00;0.00;;;11.40;95.10;226.50;231333.00;;;;5056058;28;20229;-69
2022/05/22 02:51:00;;;;;;;0.05;0.05;;;11.30;99.90;226.50;231333.00;;;;5064962;28;20300;-70
2022/05/22 02:53:30;;;;;;;0.10;0.10;;;11.40;99.90;226.50;231333.00;;;;5073452;28;20324;-69
2022/05/22 02:56:33;;;;;;;0.10;0.10;;;11.40;99.90;226.50;231333.00;;;;4991044;28;20236;-70
2022/05/22 02:59:18;;;;;;;0.10;0.10;;;11.40;99.90;226.50;231333.00;;;;5047873;28;20213;-70
2022/05/22 03:01:59;;;;;;;0.10;0.10;;;11.40;99.90;226.50;231333.00;;;;5053840;28;20622;-70
2022/05/22 03:04:28;;;;;;;0.10;0.10;;;11.30;99.80;226.50;231333.00;;;;5060383;28;20198;-69
2022/05/22 03:07:05;;;;;;;0.10;0.10;;;11.20;99.90;226.50;231333.00;;;;5034903;28;20721;-68
2022/05/22 03:09:38;;;;;;;0.10;0.10;;;11.20;99.90;226.50;231333.00;;;;5034124;28;20719;-68
2022/05/22 03:12:09;;;;;;;0.10;0.10;;;11.20;99.90;226.50;231333.00;;;;5050779;28;20712;-68
2022/05/22 03:14:44;;;;;;;0.10;0.10;;;11.20;99.90;226.50;231333.00;;;;5054661;28;20202;-68
2022/05/22 03:17:13;;;;;;;0.10;0.10;;;11.30;99.90;226.50;231333.00;;;;5067893;28;20727;-69
2022/05/22 03:19:50;;;;;;;0.10;0.10;;;11.30;99.90;226.50;231333.00;;;;5072883;28;20209;-69
2022/05/22 03:22:18;;;;;;;0.10;0.10;;;11.30;99.90;226.50;231333.00;;;;5054597;28;20205;-69
2022/05/22 03:24:49;;;;;;;0.10;0.10;;;11.30;99.90;226.50;231333.00;;;;5073155;28;20193;-69
2022/05/22 03:27:21;;;;;;;0.10;0.10;;;11.30;99.90;226.50;231333.00;;;;5054542;28;20651;-68
2022/05/22 03:29:53;;;;;;;0.00;0.00;;;11.30;99.90;226.50;231333.00;;;;5068929;28;20217;-69
2022/05/22 03:32:21;;;;;;;0.10;0.10;;;11.30;99.50;226.50;231333.00;;;;5054228;28;20193;-68
2022/05/22 03:34:56;;;;;;;0.10;0.10;;;11.20;64.80;226.50;231333.00;;;;5071300;28;20189;-68
2022/05/22 03:37:25;;;;;;;0.00;0.00;;;11.20;94.40;226.50;231333.00;;;;5071879;28;20251;-68
2022/05/22 03:40:00;;;;;;;0.00;0.00;;;11.30;61.00;226.50;231333.00;;;;5070426;28;20633;-68
2022/05/22 03:42:29;;;;;;;0.10;0.10;;;11.30;22.90;226.50;231333.00;;;;5054281;28;20251;-69
2022/05/22 03:44:58;;;;;;;0.10;0.10;;;11.30;13.00;226.50;231333.00;;;;5049046;28;20251;-68
2022/05/22 03:47:30;;;;;;;0.10;0.10;;;11.20;43.70;226.50;231333.00;;;;5070413;28;20643;-69
2022/05/22 03:50:07;;;;;;;0.10;0.10;;;11.20;95.00;226.50;231333.00;;;;5053624;28;20237;-68
2022/05/22 03:52:39;;;;;;;0.10;0.10;;;11.20;76.60;226.50;231333.00;;;;5070803;28;20201;-69
2022/05/22 03:55:16;;;;;;;0.10;0.10;;;11.10;72.40;226.50;231333.00;;;;5054238;28;20203;-69
2022/05/22 03:57:47;;;;;;;0.10;0.10;;;11.10;97.20;226.50;231333.00;;;;5053513;28;20221;-68
2022/05/22 04:00:21;;;;;;;0.10;0.10;;;11.20;99.90;226.50;231333.00;;;;5052051;28;20250;-69
2022/05/22 04:02:53;;;;;;;0.10;0.10;;;11.30;64.40;226.50;231333.00;;;;5046688;28;20723;-69
2022/05/22 04:05:22;;;;;;;0.10;0.10;;;11.40;43.90;226.50;231333.00;;;;5033930;28;20197;-69
2022/05/22 04:07:51;;;;;;;0.10;0.10;;;11.40;1.00;226.50;231333.00;;;;5050196;28;20293;-68
2022/05/22 04:10:35;;;;;;;0.10;0.10;;;11.40;13.50;226.50;231333.00;;;;5056614;28;20217;-68
2022/05/22 04:13:03;;;;;;;0.10;0.10;;;11.40;3.40;226.50;231333.00;;;;5070884;28;20361;-68
2022/05/22 04:15:33;;;;;;;0.10;0.10;;;11.40;1.00;226.50;231333.00;;;;5051121;28;20198;-68
2022/05/22 04:18:03;;;;;;;0.10;0.10;;;11.40;7.40;226.50;231333.00;;;;5058618;28;20213;-69
2022/05/22 04:20:33;;;;;;;0.10;0.10;;;11.30;37.80;226.50;231333.00;;;;5067557;28;20213;-68
2022/05/22 04:26:09;;;;;;;0.10;0.10;;;11.30;50.30;226.50;231333.00;;;;5053437;28;20197;-69
2022/05/22 04:28:38;;;;;;;0.10;0.10;;;11.30;30.50;226.50;231333.00;;;;5069096;28;20220;-68
2022/05/22 04:31:14;;;;;;;0.10;0.10;;;11.30;21.30;226.50;231333.00;;;;5053423;28;20319;-68
2022/05/22 04:34:02;;;;;;;0.10;0.10;;;11.30;1.00;226.50;231333.00;;;;5071413;28;20197;-68
2022/05/22 04:36:31;;;;;;;0.03;0.03;;;11.40;1.00;226.50;231333.00;;;;5070853;28;20210;-69
2022/05/22 04:38:59;;;;;;;0.10;0.10;;;11.40;1.00;226.50;231333.00;;;;5053109;28;20288;-69
2022/05/22 04:41:30;;;;;;;0.10;0.10;;;11.30;9.60;226.50;231333.00;;;;5052977;28;20201;-68
2022/05/22 04:43:59;;;;;;;0.10;0.10;;;11.30;1.00;226.50;231333.00;;;;5053592;28;20205;-69
2022/05/22 04:46:29;;;;;;;0.10;0.10;;;11.20;10.00;226.50;231333.00;;;;5060398;28;20551;-68
2022/05/22 04:48:57;;;;;;;0.10;0.10;;;11.30;37.10;226.50;231333.00;;;;5053232;28;20202;-68
2022/05/22 04:51:27;;;;;;;0.10;0.10;;;11.40;23.30;226.50;231333.00;;;;5052514;28;20202;-68
2022/05/22 04:53:58;;;;;;;0.10;0.10;;;11.30;29.70;226.50;231333.00;;;;5053552;28;20776;-69
2022/05/22 04:56:42;;;;;;;0.00;0.00;;;11.40;47.30;226.50;231333.00;;;;5053091;28;20302;-69
2022/05/22 04:59:16;;;;;;;0.10;0.10;;;11.50;13.30;226.50;231333.00;;;;5053265;28;20767;-68
2022/05/22 05:01:45;;;;;;;0.10;0.10;;;11.50;1.00;226.50;231333.00;;;;5066967;28;20731;-69
2022/05/22 05:04:18;;;;;;;0.10;0.10;;;11.40;1.00;226.50;231333.00;;;;5074795;28;20246;-68
2022/05/22 05:06:59;;;;;;;0.10;0.10;;;11.30;66.60;226.50;231333.00;;;;5053256;28;20201;-68
2022/05/22 05:09:48;;;;;;;0.10;0.10;;;11.40;62.60;226.50;231333.00;;;;5071304;28;20678;-68
2022/05/22 05:12:28;;;;;;;0.10;0.10;;;11.40;87.80;226.50;231333.00;;;;5057170;28;20197;-68
2022/05/22 05:14:56;;;;;;;0.10;0.10;;;11.50;73.60;226.50;231333.00;;;;5075181;28;20186;-69
2022/05/22 05:17:25;;;;;;;0.10;0.10;;;11.60;82.40;226.50;231333.00;;;;5056843;28;20225;-68
2022/05/22 05:19:54;;;;;;;0.10;0.10;;;11.60;44.80;226.50;231333.00;;;;5063787;28;20725;-69
2022/05/22 05:22:23;;;;;;;0.10;0.10;;;11.50;80.30;226.50;231333.00;;;;5068347;28;20547;-69
2022/05/22 05:25:02;;;;;;;0.10;0.10;;;11.50;62.70;226.50;231333.00;;;;5073602;28;20190;-69
2022/05/22 05:27:34;;;;;;;0.10;0.10;;;11.60;89.00;226.50;231333.00;;;;5056755;28;20194;-68
2022/05/22 05:30:14;;;;;;;0.10;0.10;;;11.60;41.80;226.50;231333.00;;;;5061395;28;20217;-69
2022/05/22 05:32:47;;;;;;;0.10;0.10;;;11.70;26.90;226.50;231333.00;;;;5037042;28;20193;-68
2022/05/22 05:35:34;;;;;;;0.10;0.10;;;11.80;30.00;226.50;231333.00;;;;5073857;28;20592;-68
2022/05/22 05:38:07;;;;;;;0.10;0.10;;;11.90;7.10;226.50;231333.00;;;;5057018;28;20229;-69
2022/05/22 05:40:36;;;;;;;0.00;0.00;;;12.00;1.00;226.50;231333.00;;;;5056616;28;20559;-68
2022/05/22 05:43:07;;;;;;;0.10;0.10;;;12.00;1.00;226.50;231333.00;;;;5056906;28;20197;-68
2022/05/22 05:45:36;;;;;;;0.10;0.10;;;12.00;1.00;226.50;231333.00;;;;5071858;28;20208;-69
2022/05/22 05:48:05;;;;;;;0.10;0.10;;;12.10;1.00;226.50;231333.00;;;;5073358;28;20193;-68
2022/05/22 05:50:37;;;;;;;0.10;0.10;;;12.20;1.00;226.50;231333.00;;;;5071979;28;20643;-69
2022/05/22 05:53:13;;;;;;;0.10;0.10;;;12.30;1.00;226.50;231333.00;;;;5056476;28;20696;-69
2022/05/22 05:55:48;;;;;;;0.10;0.10;;;12.40;1.00;226.50;231333.00;;;;5074204;28;20266;-69
2022/05/22 05:58:46;;;;;;;0.10;0.10;;;12.50;1.00;226.50;231333.00;;;;5056255;28;20237;-70
2022/05/22 06:01:24;;;;;;;0.05;0.05;;;12.60;1.00;226.50;231333.00;;;;5056175;28;20558;-69
2022/05/22 06:03:54;;;;;;;0.08;0.08;;;12.80;1.00;226.50;231333.00;;;;5067395;28;20733;-69
2022/05/22 06:06:23;;;;;;;0.10;0.10;;;13.00;1.00;226.50;231333.00;;;;5073451;28;20679;-68
2022/05/22 06:08:55;;;;;;;0.10;0.10;;;13.10;1.00;226.50;231333.00;;;;5055888;28;20233;-69
2022/05/22 06:11:30;;;;;;;0.00;0.00;;;13.10;1.00;226.50;231333.00;;;;5073993;28;20212;-68
2022/05/22 06:14:07;;;;;;;0.10;0.10;;;13.20;1.00;226.50;231333.00;;;;5056133;28;20196;-70
2022/05/22 06:16:35;;;;;;;0.10;0.10;;;13.30;1.00;226.50;231333.00;;;;5055883;28;20256;-68
2022/05/22 06:19:08;;;;;;;0.00;0.00;;;13.50;1.00;226.50;231333.00;;;;5072622;28;20312;-69
2022/05/22 06:21:37;;;;;;;0.10;0.10;;;13.60;1.00;226.50;231333.00;;;;5061721;28;20202;-69
2022/05/22 06:24:10;;;;;;;0.10;0.10;;;13.70;99.90;226.50;231333.00;;;;5056068;28;20193;-68
2022/05/22 06:26:57;;;;;;;0.08;0.08;;;13.80;99.90;226.50;231333.00;;;;5074372;28;20689;-69
2022/05/22 06:29:55;;;;;;;0.03;0.03;;;13.90;99.90;226.50;231333.00;;;;5058444;28;20225;-68
2022/05/22 06:32:43;;;;;;;0.10;0.10;;;13.90;99.90;226.50;231333.00;;;;5066057;28;20208;-69
2022/05/22 06:35:18;;;;;;;0.00;0.00;;;14.00;99.90;226.50;231333.00;;;;5073106;28;20745;-68
2022/05/22 06:41:18;;;;;;;0.00;0.00;;;14.00;99.90;226.50;231333.00;;;;5072495;28;20284;-69
2022/05/22 06:44:07;;;;;;;0.10;0.10;;;14.10;99.90;226.50;231333.00;;;;5052150;28;20202;-69
2022/05/22 06:47:05;;;;;;;0.08;0.08;;;14.10;1.00;226.50;231333.00;;;;5047014;28;20194;-69
2022/05/22 06:49:45;;;;;;;0.10;0.10;;;14.20;1.00;226.50;231333.00;;;;5064380;28;20308;-69
2022/05/22 06:52:28;;;;;;;0.10;0.10;;;14.40;1.00;226.50;231333.00;;;;5059826;28;20226;-69
2022/05/22 06:55:14;;;;;;;0.05;0.05;;;14.50;1.00;226.50;231333.00;;;;5071432;28;20209;-69
2022/05/22 06:58:02;;;;;;;0.10;0.10;;;14.60;1.00;226.50;231333.00;;;;5066346;28;20839;-68
2022/05/22 07:00:52;;;;;;;0.03;0.03;;;14.70;1.00;226.50;231333.00;;;;5063085;28;20674;-69
2022/05/22 07:03:39;;;;;;;0.00;0.00;;;14.90;99.90;226.50;231333.00;;;;5069143;28;20194;-69
2022/05/22 07:06:21;;;;;;;0.10;0.10;;;15.20;68.70;226.50;231333.00;;;;5044275;28;20193;-69
2022/05/22 07:09:21;;;;;;;0.08;0.08;;;15.40;98.10;226.50;231333.00;;;;5053518;28;20315;-69
2022/05/22 07:12:09;;;;;;;0.00;0.00;;;15.60;1.00;226.50;231333.00;;;;5069386;28;20611;-69
2022/05/22 07:14:41;;;;;;;0.10;0.10;;;15.80;99.90;226.50;231333.00;;;;5070228;28;20563;-69
2022/05/22 07:17:21;;;;;;;0.03;0.03;;;15.90;1.00;226.50;231333.00;;;;5046722;28;20222;-69
2022/05/22 07:19:59;;;;;;;0.00;0.00;;;16.00;1.00;226.50;231333.00;;;;5052357;28;20290;-70
2022/05/22 07:22:55;;;;;;;0.00;0.00;;;16.10;99.90;226.50;231333.00;;;;5066292;28;20202;-69
2022/05/22 07:25:56;;;;;;;0.00;0.00;;;16.20;1.00;226.50;231333.00;;;;5025559;28;20210;-70
2022/05/22 07:28:43;;;;;;;0.00;0.00;;;16.20;23.70;226.50;231333.00;;;;5067936;28;20261;-70
2022/05/22 07:31:25;;;;;;;0.00;0.00;;;16.30;1.00;226.50;231333.00;;;;5069293;28;20204;-70
2022/05/22 07:34:12;;;;;;;0.00;0.00;;;16.50;49.80;226.50;231333.00;;;;5073386;28;20197;-70
2022/05/22 07:37:06;;;;;;;0.10;0.10;;;16.70;1.00;226.50;231333.00;;;;5041008;28;20209;-70
2022/05/22 07:40:05;;;;;;;0.00;0.00;;;16.70;1.00;226.50;231333.00;;;;5070620;28;20221;-70
2022/05/22 07:42:52;;;;;;;0.08;0.08;;;16.90;87.50;226.50;231333.00;;;;5063742;28;20585;-70
2022/05/22 07:45:59;;;;;;;0.00;0.00;;;17.10;99.90;226.50;231333.00;;;;5070766;28;20205;-70
2022/05/22 07:48:44;;;;;;;0.00;0.00;;;17.30;99.90;226.50;231333.00;;;;5053641;28;20204;-70
2022/05/22 07:51:21;;;;;;;0.03;0.03;;;17.40;75.30;226.50;231333.00;;;;5053667;28;20666;-70
2022/05/22 07:54:01;;;;;;;0.00;0.00;;;17.40;99.90;226.50;231333.00;;;;5072021;28;20212;-70
2022/05/22 07:56:48;;;;;;;0.10;0.10;;;17.70;99.90;226.50;231333.00;;;;5071639;28;20853;-70
2022/05/22 07:59:25;;;;;;;0.00;0.00;;;17.70;1.00;226.50;231333.00;;;;5052839;28;20228;-70
2022/05/22 08:02:15;;;;;;;0.00;0.00;;;17.90;1.00;226.50;231333.00;;;;5070925;28;20205;-70
2022/05/22 08:04:48;;;;;;;0.00;0.00;;;18.00;1.00;226.50;231333.00;;;;5053841;28;20196;-70
2022/05/22 08:07:32;;;;;;;0.00;0.00;;;17.90;1.00;226.50;231333.00;;;;5062965;28;20205;-72
2022/05/22 08:10:20;;;;;;;0.00;0.00;;;17.70;1.00;226.50;231333.00;;;;5060822;28;20305;-71
2022/05/22 08:12:53;;;;;;;0.00;0.00;;;17.70;1.00;226.50;231333.00;;;;5040719;28;21077;-71
2022/05/22 08:15:30;;;;;;;0.00;0.00;;;17.70;1.00;226.50;231333.00;;;;5045280;28;20194;-71
2022/05/22 08:18:10;;;;;;;0.00;0.00;;;17.60;1.00;226.50;231333.00;;;;5052993;28;20304;-71
2022/05/22 08:20:43;;;;;;;0.00;0.00;;;17.80;1.00;226.50;231333.00;;;;5051856;28;20226;-71
2022/05/22 08:23:20;;;;;;;0.00;0.00;;;18.00;1.00;226.50;231333.00;;;;5051181;28;20247;-71
2022/05/22 08:25:55;;;;;;;0.00;0.00;;;18.30;99.90;226.50;231333.00;;;;5068202;28;20212;-71
2022/05/22 08:28:27;;;;;;;0.00;0.00;;;18.50;99.90;226.50;231333.00;;;;5068907;28;20287;-71
2022/05/22 08:30:55;;;;;;;0.10;0.10;;;18.60;1.00;226.50;231333.00;;;;5069685;28;20740;-71
2022/05/22 08:33:26;;;;;;;0.00;0.00;;;18.40;1.00;226.50;231333.00;;;;5034402;28;20694;-71
2022/05/22 08:35:55;;;;;;;0.00;0.00;;;18.00;99.90;226.50;231333.00;;;;5053277;28;20198;-71
2022/05/22 08:38:23;;;;;;;0.00;0.00;;;18.00;1.00;226.50;231333.00;;;;5070911;28;20209;-71
2022/05/22 08:41:04;;;;;;;0.00;0.00;;;18.20;1.00;226.50;231333.00;;;;5047609;28;20236;-72
2022/05/22 08:43:42;;;;;;;0.00;0.00;;;18.30;1.00;226.50;231333.00;;;;5069703;28;20670;-71
2022/05/22 08:46:19;;;;;;;0.00;0.00;;;18.50;68.90;226.50;231333.00;;;;5052986;28;20655;-71
2022/05/22 08:48:56;;;;;;;0.00;0.00;;;18.70;93.30;226.50;231333.00;;;;5070816;28;20197;-71
2022/05/22 08:51:33;;;;;;;0.00;0.00;;;19.00;99.90;226.50;231333.00;;;;5071007;28;20185;-71
2022/05/22 08:54:25;;;;;;;0.00;0.00;;;19.20;99.90;226.50;231333.00;;;;5064531;28;20205;-71
2022/05/22 08:59:54;;;;;;;0.00;0.00;;;19.00;99.90;226.50;231333.00;;;;5064464;28;20228;-71
2022/05/22 09:02:35;;;;;;;0.00;0.00;;;18.50;99.90;226.50;231333.00;;;;5071070;28;20596;-71
2022/05/22 09:05:08;;;;;;;0.00;0.00;;;18.40;99.90;226.50;231333.00;;;;5071463;28;20193;-71
2022/05/22 09:07:55;;;;;;;0.00;0.00;;;18.20;99.90;226.50;231333.00;;;;5071012;28;20192;-70
2022/05/22 09:10:38;;;;;;;0.00;0.00;;;18.50;99.90;226.50;231333.00;;;;5070502;28;20686;-71
2022/05/22 09:13:25;;;;;;;0.00;0.00;;;18.80;99.90;226.50;231333.00;;;;5069249;28;20202;-71
2022/05/22 09:16:17;;;;;;;0.00;0.00;;;19.20;99.90;226.50;231333.00;;;;5065037;28;20220;-71
2022/05/22 09:18:56;;;;;;;0.00;0.00;;;19.60;99.90;226.50;231333.00;;;;5068358;28;20209;-71
2022/05/22 09:21:32;;;;;;;0.00;0.00;;;19.50;99.90;226.50;231333.00;;;;5070903;28;20204;-71
2022/05/22 09:24:04;;;;;;;0.00;0.00;;;19.60;99.90;226.50;231333.00;;;;5071211;28;20197;-70
2022/05/22 09:26:45;;;;;;;0.00;0.00;;;19.80;99.90;226.50;231333.00;;;;5070889;28;20197;-71
2022/05/22 09:29:49;;;;;;;0.00;0.00;;;19.60;99.90;226.50;231333.00;;;;5069642;28;20268;-71
2022/05/22 09:32:40;;;;;;;0.00;0.00;;;19.60;99.90;226.50;231333.00;;;;5068994;28;20185;-71
2022/05/22 09:35:21;;;;;;;0.00;0.00;;;19.50;99.90;226.50;231333.00;;;;5071138;28;20664;-71
2022/05/22 09:38:16;;;;;;;0.00;0.00;;;18.80;99.90;226.50;231333.00;;;;5071142;28;20194;-71
2022/05/22 09:40:48;;;;;;;0.00;0.00;;;18.80;99.90;226.50;231333.00;;;;5071257;28;20230;-71
2022/05/22 09:44:13;;;;;;;0.00;0.00;;;18.80;99.90;226.50;231333.00;;;;5071249;28;20244;-71
2022/05/22 09:47:29;;;;;;;0.00;0.00;;;19.20;99.90;226.50;231333.00;;;;5068390;28;20660;-70
2022/05/22 09:50:13;;;;;;;0.00;0.00;;;19.80;99.90;226.50;231333.00;;;;5072786;28;20230;-70
2022/05/22 09:52:53;;;;;;;0.00;0.00;;;20.10;99.90;226.50;231333.00;;;;5072627;28;20256;-71
2022/05/22 09:55:39;;;;;;;0.00;0.00;;;20.30;99.30;226.50;231333.00;;;;5073405;28;20194;-71
2022/05/22 09:58:44;;;;;;;0.00;0.00;;;20.40;99.50;226.50;231333.00;;;;5074563;28;20197;-71
2022/05/22 10:01:20;;;;;;;0.00;0.00;;;20.40;98.90;226.50;231333.00;;;;5074424;28;20657;-72
2022/05/22 10:04:11;;;;;;;0.00;0.00;;;20.20;99.00;226.50;231333.00;;;;5073057;28;20276;-71
2022/05/22 10:06:59;;;;;;;0.00;0.00;;;20.10;99.00;226.50;231333.00;;;;5066783;28;20212;-71
2022/05/22 10:09:43;;;;;;;0.00;0.00;;;19.70;99.10;226.50;231333.00;;;;5074460;28;20259;-71
2022/05/22 10:12:30;;;;;;;0.00;0.00;;;19.50;99.40;226.50;231333.00;;;;5074784;28;20194;-71
2022/05/22 10:15:24;;;;;;;0.00;0.00;;;19.40;99.30;226.50;231333.00;;;;5074696;28;20862;-72
2022/05/22 10:18:25;;;;;;;0.00;0.00;;;19.50;99.30;226.50;231333.00;;;;5074037;28;20575;-71
2022/05/22 10:21:09;;;;;;;0.00;0.00;;;19.80;99.10;226.50;231333.00;;;;5073719;28;20308;-71
2022/05/22 10:23:58;;;;;;;0.00;0.00;;;20.30;99.10;226.50;231333.00;;;;5066389;28;20189;-71
2022/05/22 10:26:43;;;;;;;0.00;0.00;;;20.70;97.90;226.50;231333.00;;;;5073970;28;20190;-71
2022/05/22 10:29:22;;;;;;;0.00;0.00;;;21.10;98.20;226.50;231333.00;;;;5072697;28;20221;-71
2022/05/22 10:32:00;;;;;;;0.00;0.00;;;21.50;97.10;226.50;231333.00;;;;5073805;28;20202;-71
2022/05/22 10:34:40;;;;;;;0.00;0.00;;;21.70;97.20;226.50;231333.00;;;;5073703;28;20193;-71
2022/05/22 10:37:23;;;;;;;0.00;0.00;;;21.90;96.90;226.50;231333.00;;;;5073885;28;20196;-71
2022/05/22 10:39:52;;;;;;;0.00;0.00;;;22.10;96.70;226.50;231333.00;;;;5073595;28;20278;-71
2022/05/22 10:42:46;;;;;;;0.00;0.00;;;22.30;96.60;226.50;231333.00;;;;5073866;28;20228;-71
2022/05/22 10:45:24;;;;;;;0.00;0.00;;;22.30;96.40;226.50;231333.00;;;;5074517;28;20667;-71
2022/05/22 10:47:54;;;;;;;0.00;0.00;;;22.30;96.10;226.50;231333.00;;;;5073550;28;20265;-72
2022/05/22 10:50:28;;;;;;;0.00;0.00;;;22.20;96.40;226.50;231333.00;;;;5074126;28;20317;-70
2022/05/22 10:52:58;;;;;;;0.00;0.00;;;22.10;95.80;226.50;231333.00;;;;5073894;28;20190;-70
2022/05/22 10:55:39;;;;;;;0.00;0.00;;;22.00;96.00;226.50;231333.00;;;;5073355;28;20244;-70
2022/05/22 10:58:25;;;;;;;0.00;0.00;;;21.90;96.10;226.50;231333.00;;;;5073923;28;20193;-71
2022/05/22 11:00:57;;;;;;;0.00;0.00;;;21.90;96.30;226.50;231333.00;;;;5055232;28;20237;-71
2022/05/22 11:03:30;;;;;;;0.00;0.00;;;21.90;95.90;226.50;231333.00;;;;5056043;28;20220;-70
2022/05/22 11:06:02;;;;;;;0.00;0.00;;;22.10;95.70;226.50;231333.00;;;;5054366;28;20195;-70
2022/05/22 11:08:35;;;;;;;0.00;0.00;;;22.40;95.20;226.50;231333.00;;;;5056834;28;20256;-72
2022/05/22 11:11:15;;;;;;;0.00;0.00;;;22.60;94.60;226.50;231333.00;;;;5059294;28;20222;-71
2022/05/22 11:13:45;;;;;;;0.00;0.00;;;22.50;94.20;226.50;231333.00;;;;5067954;28;20756;-71
2022/05/22 11:16:18;;;;;;;0.00;0.00;;;22.50;94.80;226.50;231333.00;;;;5070008;28;20190;-70
2022/05/22 11:18:47;;;;;;;0.00;0.00;;;22.50;94.80;226.50;231333.00;;;;5070914;28;20204;-71
2022/05/22 11:21:32;;;;;;;0.00;0.00;;;22.50;94.80;226.50;231333.00;;;;5053027;28;20225;-71
2022/05/22 11:24:22;;;;;;;0.00;0.00;;;22.40;95.00;226.50;231333.00;;;;5053193;28;20190;-71
2022/05/22 11:27:09;;;;;;;0.00;0.00;;;22.10;94.70;226.50;231333.00;;;;5052891;28;20534;-71
2022/05/22 11:30:09;;;;;;;0.00;0.00;;;21.60;95.20;226.50;231333.00;;;;5059213;28;20214;-71
2022/05/22 11:33:07;;;;;;;0.00;0.00;;;21.20;95.50;226.50;231333.00;;;;5069960;28;20194;-70
2022/05/22 11:35:45;;;;;;;0.00;0.00;;;21.40;95.90;226.50;231333.00;;;;5072950;28;20197;-71
2022/05/22 11:38:45;;;;;;;0.00;0.00;;;21.70;95.60;226.50;231333.00;;;;5055141;28;20209;-70
2022/05/22 11:41:27;;;;;;;0.00;0.00;;;21.90;95.40;226.50;231333.00;;;;5075831;28;20222;-70